Time;durP1;ratioP1;P1;durP2;ratioP2;P2;SDS_P1;SDS_P2;PMS_P1;PMS_P2;Temp;Humidity;BMP_temperature;BMP_pressure;BME280_temperature;BME280_humidity;BME280_pressure;Samples;Min_cycle;Max_cycle;Signal;HPM_P1;HPM_P2
2021/03/11 00:00:42;;;;;;;;;23.67;21.33;;;;;;;;5058767;27;113797;-74
2021/03/11 00:03:08;;;;;;;;;31.00;30.33;;;;;;;;5058079;27;113964;-75
2021/03/11 00:05:34;;;;;;;;;28.33;26.00;;;;;;;;5058397;27;111961;-74
2021/03/11 00:08:01;;;;;;;;;31.33;25.33;;;;;;;;5058733;27;113464;-77
2021/03/11 00:10:27;;;;;;;;;26.33;22.00;;;;;;;;5057656;27;114130;-75
2021/03/11 00:12:54;;;;;;;;;26.00;22.33;;;;;;;;5057876;27;112073;-74
2021/03/11 00:15:21;;;;;;;;;27.00;23.00;;;;;;;;5058706;27;113801;-73
2021/03/11 00:17:47;;;;;;;;;25.00;20.00;;;;;;;;5061458;27;114228;-74
2021/03/11 00:20:14;;;;;;;;;30.00;26.00;;;;;;;;5058018;27;113491;-73
2021/03/11 00:22:40;;;;;;;;;33.33;21.33;;;;;;;;5057464;27;114237;-73
2021/03/11 00:25:07;;;;;;;;;28.33;22.00;;;;;;;;5058796;27;112107;-73
2021/03/11 00:27:33;;;;;;;;;24.67;23.33;;;;;;;;5058000;27;113495;-74
2021/03/11 00:29:59;;;;;;;;;25.00;20.67;;;;;;;;5053244;27;114586;-76
2021/03/11 00:32:25;;;;;;;;;22.67;20.00;;;;;;;;5058345;27;111868;-77
2021/03/11 00:34:51;;;;;;;;;28.33;22.33;;;;;;;;5058285;27;113555;-76
2021/03/11 00:37:17;;;;;;;;;29.33;23.67;;;;;;;;5057746;27;114677;-76
2021/03/11 00:39:43;;;;;;;;;25.00;23.00;;;;;;;;5061363;27;112644;-74
2021/03/11 00:42:09;;;;;;;;;22.67;22.00;;;;;;;;5057013;27;114033;-74
2021/03/11 00:44:35;;;;;;;;;23.00;23.00;;;;;;;;5058028;27;111822;-75
2021/03/11 00:47:03;;;;;;;;;25.00;23.67;;;;;;;;5058308;27;113393;-75
2021/03/11 00:49:31;;;;;;;;;26.00;22.67;;;;;;;;5056462;27;114423;-75
2021/03/11 00:51:57;;;;;;;;;23.33;21.00;;;;;;;;5058032;27;112007;-74
2021/03/11 00:54:23;;;;;;;;;25.00;19.67;;;;;;;;5057479;27;113982;-73
2021/03/11 00:56:49;;;;;;;;;22.67;21.00;;;;;;;;5056684;27;114720;-74
2021/03/11 00:59:15;;;;;;;;;23.00;23.00;;;;;;;;5057553;27;112465;-74
2021/03/11 01:01:41;;;;;;;;;26.00;23.00;;;;;;;;5057037;27;114695;-73
2021/03/11 01:04:08;;;;;;;;;30.00;25.67;;;;;;;;5057917;27;111880;-73
2021/03/11 01:06:34;;;;;;;;;26.00;25.00;;;;;;;;5057103;27;114138;-72
2021/03/11 01:09:00;;;;;;;;;25.00;22.00;;;;;;;;5057402;27;114070;-74
2021/03/11 01:11:26;;;;;;;;;29.00;22.00;;;;;;;;5057598;27;112732;-74
2021/03/11 01:13:52;;;;;;;;;21.33;19.67;;;;;;;;5057039;27;113234;-74
2021/03/11 01:16:18;;;;;;;;;28.33;21.33;;;;;;;;5056488;27;114652;-74
2021/03/11 01:18:44;;;;;;;;;22.67;18.67;;;;;;;;5057417;27;113202;-75
2021/03/11 01:21:11;;;;;;;;;29.00;24.00;;;;;;;;5060860;27;113852;-76
2021/03/11 01:23:37;;;;;;;;;22.00;21.00;;;;;;;;5057317;27;112040;-74
2021/03/11 01:26:03;;;;;;;;;27.67;21.67;;;;;;;;5057276;27;113697;-75
2021/03/11 01:28:29;;;;;;;;;31.00;28.67;;;;;;;;5056554;27;114055;-72
2021/03/11 01:30:55;;;;;;;;;29.00;28.67;;;;;;;;5057315;27;112352;-72
2021/03/11 01:33:21;;;;;;;;;32.33;28.00;;;;;;;;5057158;27;113559;-73
2021/03/11 01:35:48;;;;;;;;;28.67;25.33;;;;;;;;5056424;27;113959;-74
2021/03/11 01:38:15;;;;;;;;;25.33;23.00;;;;;;;;5056820;27;112789;-74
2021/03/11 01:40:41;;;;;;;;;30.00;25.67;;;;;;;;5057109;27;113431;-74
2021/03/11 01:43:07;;;;;;;;;26.67;25.33;;;;;;;;5059779;27;114117;-74
2021/03/11 01:45:33;;;;;;;;;26.67;24.33;;;;;;;;5052679;27;113767;-74
2021/03/11 01:47:59;;;;;;;;;29.67;24.67;;;;;;;;5056408;27;113894;-75
2021/03/11 01:50:25;;;;;;;;;34.00;26.33;;;;;;;;5056915;27;112713;-74
2021/03/11 01:52:51;;;;;;;;;28.00;25.00;;;;;;;;5057076;27;113677;-73
2021/03/11 01:55:18;;;;;;;;;28.67;24.00;;;;;;;;5056076;27;114263;-73
2021/03/11 01:57:46;;;;;;;;;29.00;27.00;;;;;;;;5052957;27;112029;-75
2021/03/11 02:00:12;;;;;;;;;29.67;28.33;;;;;;;;5056730;27;113651;-74
2021/03/11 02:02:40;;;;;;;;;32.00;29.00;;;;;;;;5056993;27;114757;-74
2021/03/11 02:05:06;;;;;;;;;28.67;25.33;;;;;;;;5063826;27;111935;-75
2021/03/11 02:07:32;;;;;;;;;31.00;28.67;;;;;;;;5053739;27;115003;-74
2021/03/11 02:09:58;;;;;;;;;22.33;19.00;;;;;;;;5056749;27;113309;-74
2021/03/11 02:12:30;;;;;;;;;29.00;27.67;;;;;;;;5056522;27;113848;-74
2021/03/11 02:15:02;;;;;;;;;31.00;27.00;;;;;;;;5055720;27;114407;-74
2021/03/11 02:17:30;;;;;;;;;30.67;30.00;;;;;;;;5056996;27;111963;-73
2021/03/11 02:20:13;;;;;;;;;35.67;30.67;;;;;;;;5056658;27;113541;-73
2021/03/11 02:22:45;;;;;;;;;31.67;28.67;;;;;;;;5055771;27;114638;-73
2021/03/11 02:25:14;;;;;;;;;29.00;24.67;;;;;;;;5056348;27;111990;-73
2021/03/11 02:27:49;;;;;;;;;33.33;27.67;;;;;;;;5059306;27;113496;-73
2021/03/11 02:30:16;;;;;;;;;31.67;28.33;;;;;;;;5049144;27;112205;-73
2021/03/11 02:32:43;;;;;;;;;27.00;23.33;;;;;;;;5051376;27;113653;-73
2021/03/11 02:35:10;;;;;;;;;31.67;25.00;;;;;;;;5056030;27;114239;-73
2021/03/11 02:37:38;;;;;;;;;31.00;23.67;;;;;;;;5055786;27;111837;-73
2021/03/11 02:40:06;;;;;;;;;25.67;23.67;;;;;;;;5056548;27;113691;-74
2021/03/11 02:42:33;;;;;;;;;19.00;17.00;;;;;;;;5053189;27;114240;-73
2021/03/11 02:45:00;;;;;;;;;26.67;25.00;;;;;;;;5054616;27;112468;-74
2021/03/11 02:47:27;;;;;;;;;27.00;26.00;;;;;;;;5055722;27;114073;-74
2021/03/11 02:49:55;;;;;;;;;27.67;22.67;;;;;;;;5059447;27;111990;-74
2021/03/11 02:52:21;;;;;;;;;27.33;23.00;;;;;;;;5055649;27;113686;-74
2021/03/11 02:54:48;;;;;;;;;27.00;26.67;;;;;;;;5055068;27;114580;-74
2021/03/11 02:57:16;;;;;;;;;25.00;23.00;;;;;;;;5056334;27;112346;-74
2021/03/11 02:59:43;;;;;;;;;30.00;26.67;;;;;;;;5051660;27;113567;-74
2021/03/11 03:02:09;;;;;;;;;27.33;23.33;;;;;;;;5055688;27;114131;-73
2021/03/11 03:04:39;;;;;;;;;25.33;22.33;;;;;;;;5056032;27;111853;-74
2021/03/11 03:07:05;;;;;;;;;30.33;28.67;;;;;;;;5056290;27;113537;-73
2021/03/11 03:09:33;;;;;;;;;28.33;25.33;;;;;;;;5058911;27;114200;-74
2021/03/11 03:11:59;;;;;;;;;34.33;26.33;;;;;;;;5056261;27;114071;-73
2021/03/11 03:14:25;;;;;;;;;31.67;26.67;;;;;;;;5054440;27;114548;-74
2021/03/11 03:16:52;;;;;;;;;30.67;27.33;;;;;;;;5055490;27;112127;-75
2021/03/11 03:19:18;;;;;;;;;32.33;28.00;;;;;;;;5055217;27;113482;-75
2021/03/11 03:21:47;;;;;;;;;37.00;30.00;;;;;;;;5057095;27;114088;-74
2021/03/11 03:24:14;;;;;;;;;36.00;33.50;;;;;;;;5055113;27;113053;-75
2021/03/11 03:26:40;;;;;;;;;29.33;25.67;;;;;;;;5058789;27;114126;-74
2021/03/11 03:29:06;;;;;;;;;27.33;25.33;;;;;;;;5058660;27;114238;-73
2021/03/11 03:31:33;;;;;;;;;28.00;25.67;;;;;;;;5062681;27;112302;-75
2021/03/11 03:33:59;;;;;;;;;32.33;28.33;;;;;;;;5057885;27;114611;-75
2021/03/11 03:36:25;;;;;;;;;26.67;24.00;;;;;;;;5059241;27;111830;-75
2021/03/11 03:38:53;;;;;;;;;32.33;27.33;;;;;;;;5058966;27;113689;-75
2021/03/11 03:41:20;;;;;;;;;26.50;26.50;;;;;;;;5057601;27;113979;-76
2021/03/11 03:43:46;;;;;;;;;31.25;26.00;;;;;;;;5058741;27;112309;-75
2021/03/11 03:46:13;;;;;;;;;36.50;29.25;;;;;;;;5059154;27;113496;-73
2021/03/11 03:48:40;;;;;;;;;20.50;18.00;;;;;;;;5057459;27;113780;-74
2021/03/11 03:51:08;;;;;;;;;28.75;27.00;;;;;;;;5059033;27;112150;-73
2021/03/11 03:53:36;;;;;;;;;33.25;27.50;;;;;;;;5061329;27;113684;-74
2021/03/11 03:56:03;;;;;;;;;36.25;29.50;;;;;;;;5058417;27;111971;-74
2021/03/11 03:58:31;;;;;;;;;27.50;25.50;;;;;;;;5058357;27;114008;-74
2021/03/11 04:00:58;;;;;;;;;32.75;29.00;;;;;;;;5058310;27;114272;-73
2021/03/11 04:03:24;;;;;;;;;30.75;26.50;;;;;;;;5058278;27;111825;-73
2021/03/11 04:05:54;;;;;;;;;37.50;30.00;;;;;;;;5058222;27;113483;-74
2021/03/11 04:08:20;;;;;;;;;28.50;26.75;;;;;;;;5057178;27;114325;-76
2021/03/11 04:10:46;;;;;;;;;32.50;28.25;;;;;;;;5058851;27;113301;-74
2021/03/11 04:13:13;;;;;;;;;31.50;28.25;;;;;;;;5058446;27;113458;-74
2021/03/11 04:15:39;;;;;;;;;17.00;14.50;;;;;;;;5061495;27;114301;-74
2021/03/11 04:18:06;;;;;;;;;35.25;29.25;;;;;;;;5058344;27;113591;-74
2021/03/11 04:20:32;;;;;;;;;31.25;30.50;;;;;;;;5057612;27;115143;-75
2021/03/11 04:22:59;;;;;;;;;30.75;29.00;;;;;;;;5058413;27;112714;-75
2021/03/11 04:25:25;;;;;;;;;31.50;29.25;;;;;;;;5053529;27;113518;-74
2021/03/11 04:27:51;;;;;;;;;25.50;25.50;;;;;;;;5057080;27;114067;-74
2021/03/11 04:30:19;;;;;;;;;36.25;29.50;;;;;;;;5058661;27;112083;-74
2021/03/11 04:32:45;;;;;;;;;31.25;29.75;;;;;;;;5058053;27;114444;-75
2021/03/11 04:35:12;;;;;;;;;29.50;27.50;;;;;;;;5057325;27;115099;-74
2021/03/11 04:37:40;;;;;;;;;32.50;28.25;;;;;;;;5061912;27;111967;-75
2021/03/11 04:40:07;;;;;;;;;23.00;21.50;;;;;;;;5057237;27;114410;-75
2021/03/11 04:42:34;;;;;;;;;35.00;34.25;;;;;;;;5057854;27;112046;-75
2021/03/11 04:45:00;;;;;;;;;31.75;26.75;;;;;;;;5057928;27;114425;-75
2021/03/11 04:47:28;;;;;;;;;30.00;29.00;;;;;;;;5057210;27;114056;-74
2021/03/11 04:49:54;;;;;;;;;39.25;35.00;;;;;;;;5057779;27;111937;-75
2021/03/11 04:52:20;;;;;;;;;35.25;30.25;;;;;;;;5057482;27;114507;-75
2021/03/11 04:54:46;;;;;;;;;31.75;31.75;;;;;;;;5057078;27;114382;-75
2021/03/11 04:57:12;;;;;;;;;29.25;29.25;;;;;;;;5061899;27;111984;-75
2021/03/11 04:59:38;;;;;;;;;29.75;28.75;;;;;;;;5057203;27;114103;-75
2021/03/11 05:02:06;;;;;;;;;30.00;29.00;;;;;;;;5057889;27;112364;-73
2021/03/11 05:04:33;;;;;;;;;32.50;25.00;;;;;;;;5056863;27;113899;-76
2021/03/11 05:06:59;;;;;;;;;32.25;26.75;;;;;;;;5057040;27;114011;-74
2021/03/11 05:09:25;;;;;;;;;33.00;30.50;;;;;;;;5057023;27;111906;-74
2021/03/11 05:11:51;;;;;;;;;27.25;24.75;;;;;;;;5057383;27;113668;-75
2021/03/11 05:14:17;;;;;;;;;37.50;32.50;;;;;;;;5055689;27;114562;-75
2021/03/11 05:16:43;;;;;;;;;31.50;30.00;;;;;;;;5057910;27;111995;-76
2021/03/11 05:19:09;;;;;;;;;33.00;29.00;;;;;;;;5060704;27;114082;-75
2021/03/11 05:21:36;;;;;;;;;38.00;33.25;;;;;;;;5057344;27;112309;-73
2021/03/11 05:24:02;;;;;;;;;34.25;32.75;;;;;;;;5056918;27;113612;-74
2021/03/11 05:26:28;;;;;;;;;28.00;25.00;;;;;;;;5056447;27;114300;-73
2021/03/11 05:28:57;;;;;;;;;35.00;33.75;;;;;;;;5057397;27;111870;-74
2021/03/11 05:31:23;;;;;;;;;37.75;33.00;;;;;;;;5057546;27;113503;-76
2021/03/11 05:33:49;;;;;;;;;33.25;30.50;;;;;;;;5056843;27;116281;-74
2021/03/11 05:36:15;;;;;;;;;38.75;33.75;;;;;;;;5057393;27;112001;-74
2021/03/11 05:38:44;;;;;;;;;33.75;30.25;;;;;;;;5057127;27;113998;-75
2021/03/11 05:41:10;;;;;;;;;41.50;35.00;;;;;;;;5060628;27;114399;-75
2021/03/11 05:43:37;;;;;;;;;33.00;33.00;;;;;;;;5056209;27;113409;-74
2021/03/11 05:46:04;;;;;;;;;36.75;32.00;;;;;;;;5056845;27;112852;-74
2021/03/11 05:48:33;;;;;;;;;39.00;35.50;;;;;;;;5056758;27;112336;-74
2021/03/11 05:50:59;;;;;;;;;37.00;29.50;;;;;;;;5057207;27;113700;-74
2021/03/11 05:53:25;;;;;;;;;35.75;34.00;;;;;;;;5056141;27;113800;-75
2021/03/11 05:55:51;;;;;;;;;39.00;32.00;;;;;;;;5056594;27;113109;-74
2021/03/11 05:58:19;;;;;;;;;39.00;36.25;;;;;;;;5057014;27;114155;-74
2021/03/11 06:00:45;;;;;;;;;40.50;36.50;;;;;;;;5052209;27;114080;-74
2021/03/11 06:03:11;;;;;;;;;36.75;33.00;;;;;;;;5060670;27;112038;-74
2021/03/11 06:05:37;;;;;;;;;40.50;36.00;;;;;;;;5055442;27;114336;-73
2021/03/11 06:08:06;;;;;;;;;36.25;36.25;;;;;;;;5056206;27;112853;-83
2021/03/11 06:10:32;;;;;;;;;34.00;31.75;;;;;;;;5055925;27;113724;-72
2021/03/11 06:12:59;;;;;;;;;33.25;28.25;;;;;;;;5055865;27;114509;-78
2021/03/11 06:15:31;;;;;;;;;43.00;35.25;;;;;;;;5056274;27;112458;-74
2021/03/11 06:17:58;;;;;;;;;37.75;32.75;;;;;;;;5056408;27;113472;-74
2021/03/11 06:20:24;;;;;;;;;37.00;33.00;;;;;;;;5055956;27;114462;-76
2021/03/11 06:22:50;;;;;;;;;35.75;35.00;;;;;;;;5056760;27;111879;-72
2021/03/11 06:25:17;;;;;;;;;41.25;36.50;;;;;;;;5059354;27;113374;-72
2021/03/11 06:27:43;;;;;;;;;41.25;36.50;;;;;;;;5056139;27;112002;-71
2021/03/11 06:30:28;;;;;;;;;33.75;33.75;;;;;;;;5056194;27;113629;-73
2021/03/11 06:32:55;;;;;;;;;38.50;38.25;;;;;;;;5053111;27;114106;-72
2021/03/11 06:35:21;;;;;;;;;32.50;29.00;;;;;;;;5056447;27;111853;-73
2021/03/11 06:37:48;;;;;;;;;38.50;35.00;;;;;;;;5052258;27;113580;-72
2021/03/11 06:40:15;;;;;;;;;42.00;38.00;;;;;;;;5055732;27;114151;-74
2021/03/11 06:42:42;;;;;;;;;35.25;32.75;;;;;;;;5056480;27;112221;-74
2021/03/11 06:45:20;;;;;;;;;37.75;36.50;;;;;;;;5056326;27;113821;-74
2021/03/11 06:47:45;;;;;;;;;43.25;38.00;;;;;;;;5055344;27;114047;-73
2021/03/11 06:50:11;;;;;;;;;32.25;25.50;;;;;;;;5055295;27;113950;-74
2021/03/11 06:52:37;;;;;;;;;38.50;36.50;;;;;;;;5053736;27;115080;-76
2021/03/11 06:55:05;;;;;;;;;39.50;34.50;;;;;;;;5052501;27;113050;-73
2021/03/11 06:57:32;;;;;;;;;46.00;40.50;;;;;;;;5055490;27;113728;-76
2021/03/11 06:59:59;;;;;;;;;48.00;39.50;;;;;;;;5053169;27;114253;-73
2021/03/11 07:02:27;;;;;;;;;42.75;37.75;;;;;;;;5055950;27;111932;-74
2021/03/11 07:04:53;;;;;;;;;51.00;39.50;;;;;;;;5055760;27;113587;-72
2021/03/11 07:07:19;;;;;;;;;44.00;36.75;;;;;;;;5060005;27;114279;-70
2021/03/11 07:09:46;;;;;;;;;41.00;36.50;;;;;;;;5058015;27;113411;-70
2021/03/11 07:12:12;;;;;;;;;45.50;40.00;;;;;;;;5056720;27;114191;-75
2021/03/11 07:14:38;;;;;;;;;38.75;36.50;;;;;;;;5058518;27;112205;-71
2021/03/11 07:17:19;;;;;;;;;26.75;22.25;;;;;;;;5056302;27;113623;-75
2021/03/11 07:20:05;;;;;;;;;40.25;38.25;;;;;;;;5054439;27;114271;-74
2021/03/11 07:22:31;;;;;;;;;39.25;35.00;;;;;;;;5057877;27;112598;-73
2021/03/11 07:24:57;;;;;;;;;44.75;36.25;;;;;;;;5059345;27;113907;-73
2021/03/11 07:27:23;;;;;;;;;39.25;36.00;;;;;;;;5058911;27;113895;-73
2021/03/11 07:30:00;;;;;;;;;42.25;39.00;;;;;;;;5059537;27;112270;-72
2021/03/11 07:32:26;;;;;;;;;51.25;42.25;;;;;;;;5058305;27;114026;-72
2021/03/11 07:34:53;;;;;;;;;45.25;39.75;;;;;;;;5059034;27;112011;-74
2021/03/11 07:37:20;;;;;;;;;44.00;39.25;;;;;;;;5058517;27;113488;-74
2021/03/11 07:39:48;;;;;;;;;53.50;41.75;;;;;;;;5058631;27;114069;-73
2021/03/11 07:42:14;;;;;;;;;48.25;40.50;;;;;;;;5059187;27;111963;-75
2021/03/11 07:44:40;;;;;;;;;44.25;38.50;;;;;;;;5059548;27;113890;-72
2021/03/11 07:47:06;;;;;;;;;41.25;39.75;;;;;;;;5059175;27;113951;-74
2021/03/11 07:49:33;;;;;;;;;49.00;41.00;;;;;;;;5057606;27;112961;-73
2021/03/11 07:52:00;;;;;;;;;55.00;44.50;;;;;;;;5063992;27;113881;-75
2021/03/11 07:54:26;;;;;;;;;49.00;42.00;;;;;;;;5075528;27;111675;-73
2021/03/11 07:56:52;;;;;;;;;47.50;41.25;;;;;;;;5074480;27;112425;-71
2021/03/11 07:59:18;;;;;;;;;54.00;43.00;;;;;;;;5061114;27;114493;-72
2021/03/11 08:01:46;;;;;;;;;54.50;44.25;;;;;;;;5063932;27;112187;-73
2021/03/11 08:04:16;;;;;;;;;58.00;43.25;;;;;;;;5064422;27;114658;-73
2021/03/11 08:06:42;;;;;;;;;59.00;47.25;;;;;;;;5066259;27;114274;-73
2021/03/11 08:09:09;;;;;;;;;55.25;45.75;;;;;;;;5063767;27;112203;-73
2021/03/11 08:11:36;;;;;;;;;54.00;44.75;;;;;;;;5063347;27;113418;-73
2021/03/11 08:14:18;;;;;;;;;57.00;45.25;;;;;;;;5067455;27;114247;-75
2021/03/11 08:16:44;;;;;;;;;52.50;43.25;;;;;;;;5063801;27;113693;-76
2021/03/11 08:19:10;;;;;;;;;55.25;43.50;;;;;;;;5063390;27;114619;-75
2021/03/11 08:21:45;;;;;;;;;60.75;45.00;;;;;;;;5058729;27;112183;-73
2021/03/11 08:24:30;;;;;;;;;50.75;41.75;;;;;;;;5059489;27;113077;-81
2021/03/11 08:26:57;;;;;;;;;45.33;40.67;;;;;;;;5058287;27;114088;-86
2021/03/11 08:29:32;;;;;;;;;56.00;44.33;;;;;;;;5059186;27;111934;-83
2021/03/11 08:31:59;;;;;;;;;53.67;41.33;;;;;;;;5058933;27;113805;-87
2021/03/11 08:34:37;;;;;;;;;54.67;45.00;;;;;;;;5059106;27;114296;-91
2021/03/11 08:37:19;;;;;;;;;49.33;42.00;;;;;;;;5063140;27;112454;-88
2021/03/11 08:39:45;;;;;;;;;51.33;42.00;;;;;;;;5058134;27;113219;-88
2021/03/11 08:42:46;;;;;;;;;49.00;41.67;;;;;;;;5069073;27;111899;-90
2021/03/11 08:45:13;;;;;;;;;44.67;40.00;;;;;;;;5075077;27;113679;-85
2021/03/11 08:47:54;;;;;;;;;54.00;43.00;;;;;;;;5069963;27;114043;-90
2021/03/11 08:50:34;;;;;;;;;56.00;45.00;;;;;;;;5068057;27;112146;-86
2021/03/11 08:53:00;;;;;;;;;40.00;38.33;;;;;;;;5073516;27;113587;-87
2021/03/11 08:55:44;;;;;;;;;53.00;42.00;;;;;;;;5068778;27;113097;-84
2021/03/11 08:58:25;;;;;;;;;48.67;40.00;;;;;;;;5068902;27;111996;-83
2021/03/11 09:00:56;;;;;;;;;52.00;43.00;;;;;;;;5059573;27;112523;-74
2021/03/11 09:03:42;;;;;;;;;53.00;40.67;;;;;;;;5057963;27;112266;-73
2021/03/11 09:06:09;;;;;;;;;49.67;39.00;;;;;;;;5053676;27;114465;-77
2021/03/11 09:08:35;;;;;;;;;51.00;40.33;;;;;;;;5057169;27;113993;-78
2021/03/11 09:11:08;;;;;;;;;46.33;38.67;;;;;;;;5057198;27;111977;-77
2021/03/11 09:13:34;;;;;;;;;51.67;42.00;;;;;;;;5057085;27;113496;-76
2021/03/11 09:16:01;;;;;;;;;41.67;37.67;;;;;;;;5056426;27;115126;-77
2021/03/11 09:18:28;;;;;;;;;43.00;38.25;;;;;;;;5056718;27;111880;-76
2021/03/11 09:20:54;;;;;;;;;41.75;36.50;;;;;;;;5060539;27;113483;-75
2021/03/11 09:23:20;;;;;;;;;42.50;37.00;;;;;;;;5056970;27;111825;-74
2021/03/11 09:25:46;;;;;;;;;44.75;37.00;;;;;;;;5057230;27;112936;-75
2021/03/11 09:28:14;;;;;;;;;40.25;34.50;;;;;;;;5064187;27;114031;-76
2021/03/11 09:30:41;;;;;;;;;48.25;36.75;;;;;;;;5060843;27;112040;-76
2021/03/11 09:33:08;;;;;;;;;45.00;37.75;;;;;;;;5057594;27;113631;-78
2021/03/11 09:35:35;;;;;;;;;36.00;33.00;;;;;;;;5056236;27;114155;-75
2021/03/11 09:38:01;;;;;;;;;37.75;34.00;;;;;;;;5056704;27;111957;-76
2021/03/11 09:40:29;;;;;;;;;44.25;38.00;;;;;;;;5057251;27;113642;-76
2021/03/11 09:43:14;;;;;;;;;42.00;37.25;;;;;;;;5064336;27;112874;-75
2021/03/11 09:45:42;;;;;;;;;45.75;36.25;;;;;;;;5056481;27;112892;-74
2021/03/11 09:48:10;;;;;;;;;37.25;32.75;;;;;;;;5056409;27;114709;-74
2021/03/11 09:50:38;;;;;;;;;47.00;36.50;;;;;;;;5062545;27;111986;-76
2021/03/11 09:53:04;;;;;;;;;49.67;39.00;;;;;;;;5062716;27;113573;-75
2021/03/11 09:55:30;;;;;;;;;42.67;36.67;;;;;;;;5063262;27;114014;-75
2021/03/11 09:57:56;;;;;;;;;50.00;39.00;;;;;;;;5062381;27;111979;-75
2021/03/11 10:00:23;;;;;;;;;43.00;37.33;;;;;;;;5064455;27;113430;-77
2021/03/11 10:02:49;;;;;;;;;42.33;36.00;;;;;;;;5056474;27;114375;-78
2021/03/11 10:05:17;;;;;;;;;45.67;37.00;;;;;;;;5060726;27;112122;-78
2021/03/11 10:07:43;;;;;;;;;52.00;41.33;;;;;;;;5052461;27;114311;-75
2021/03/11 10:10:13;;;;;;;;;48.33;41.33;;;;;;;;5059955;27;112164;-78
2021/03/11 10:12:41;;;;;;;;;44.00;37.00;;;;;;;;5056904;27;113788;-79
2021/03/11 10:15:07;;;;;;;;;51.00;40.33;;;;;;;;5056328;27;114635;-83
2021/03/11 10:17:33;;;;;;;;;39.67;35.33;;;;;;;;5056851;27;112431;-79
2021/03/11 10:19:59;;;;;;;;;45.00;36.67;;;;;;;;5056446;27;113992;-80
2021/03/11 10:22:27;;;;;;;;;48.67;38.67;;;;;;;;5055528;27;114070;-78
2021/03/11 10:24:53;;;;;;;;;40.50;36.75;;;;;;;;5060997;27;111984;-81
2021/03/11 10:27:23;;;;;;;;;41.75;35.50;;;;;;;;5063622;27;113518;-78
2021/03/11 10:29:59;;;;;;;;;42.25;37.00;;;;;;;;5058933;27;112041;-76
2021/03/11 10:32:26;;;;;;;;;47.75;40.00;;;;;;;;5058748;27;114345;-75
2021/03/11 10:34:52;;;;;;;;;42.75;36.50;;;;;;;;5059378;27;114916;-76
2021/03/11 10:37:24;;;;;;;;;41.25;35.25;;;;;;;;5059159;27;112620;-76
2021/03/11 10:39:52;;;;;;;;;51.50;38.25;;;;;;;;5056997;27;113718;-77
2021/03/11 10:42:18;;;;;;;;;48.00;38.00;;;;;;;;5058765;27;114044;-76
2021/03/11 10:44:54;;;;;;;;;39.75;34.50;;;;;;;;5060565;27;112230;-77
2021/03/11 10:47:20;;;;;;;;;49.50;39.75;;;;;;;;5063366;27;113600;-76
2021/03/11 10:49:46;;;;;;;;;40.75;36.00;;;;;;;;5062283;27;114024;-76
2021/03/11 10:52:13;;;;;;;;;43.75;37.00;;;;;;;;5055753;27;113822;-78
2021/03/11 10:54:41;;;;;;;;;46.25;39.00;;;;;;;;5059354;27;114608;-77
2021/03/11 10:57:10;;;;;;;;;45.50;36.75;;;;;;;;5059483;27;111926;-75
2021/03/11 10:59:49;;;;;;;;;39.50;33.75;;;;;;;;5059912;27;113497;-75
2021/03/11 11:02:15;;;;;;;;;40.75;36.25;;;;;;;;5055586;27;114187;-78
2021/03/11 11:04:41;;;;;;;;;41.00;33.25;;;;;;;;5060365;27;112042;-77
2021/03/11 11:07:07;;;;;;;;;40.50;33.75;;;;;;;;5060613;27;113438;-78
2021/03/11 11:09:33;;;;;;;;;34.75;32.00;;;;;;;;5059488;27;114043;-79
2021/03/11 11:11:59;;;;;;;;;38.00;34.50;;;;;;;;5068087;27;111855;-73
2021/03/11 11:14:26;;;;;;;;;36.75;32.50;;;;;;;;5070758;27;114112;-78
2021/03/11 11:16:52;;;;;;;;;36.25;32.25;;;;;;;;5066726;27;112028;-79
2021/03/11 11:19:18;;;;;;;;;42.75;34.50;;;;;;;;5061014;27;113359;-79
2021/03/11 11:21:44;;;;;;;;;38.25;34.00;;;;;;;;5058920;27;114310;-82
2021/03/11 11:24:10;;;;;;;;;37.50;34.25;;;;;;;;5060247;27;112369;-76
2021/03/11 11:26:36;;;;;;;;;40.00;35.00;;;;;;;;5060113;27;112319;-76
2021/03/11 11:29:05;;;;;;;;;41.00;36.00;;;;;;;;5059019;27;114031;-81
2021/03/11 11:31:32;;;;;;;;;40.25;34.00;;;;;;;;5063060;27;112513;-82
2021/03/11 11:33:58;;;;;;;;;31.00;31.00;;;;;;;;5058951;27;114115;-80
2021/03/11 11:36:24;;;;;;;;;39.75;34.50;;;;;;;;5059191;27;113747;-78
2021/03/11 22:25:35;;;;;;;;;52.60;41.40;;;;;;;;5082714;27;112665;-72
2021/03/11 22:28:01;;;;;;;;;53.33;41.67;;;;;;;;5059271;27;113985;-72
2021/03/11 22:30:29;;;;;;;;;50.33;39.33;;;;;;;;5061915;27;111845;-72
2021/03/11 22:32:55;;;;;;;;;46.00;40.33;;;;;;;;5062488;27;112243;-72
2021/03/11 22:35:21;;;;;;;;;42.00;38.33;;;;;;;;5060432;27;114501;-72
2021/03/11 22:37:47;;;;;;;;;42.67;38.00;;;;;;;;5063800;27;111944;-73
2021/03/11 22:40:14;;;;;;;;;43.67;37.33;;;;;;;;5060765;27;113670;-72
2021/03/11 22:42:41;;;;;;;;;48.33;39.67;;;;;;;;5056146;27;114240;-69
2021/03/11 22:45:09;;;;;;;;;44.00;39.67;;;;;;;;5068727;27;112346;-72
2021/03/11 22:47:35;;;;;;;;;47.33;37.00;;;;;;;;5060584;27;113932;-73
2021/03/11 22:50:01;;;;;;;;;46.00;37.33;;;;;;;;5064203;27;112849;-74
2021/03/11 22:52:27;;;;;;;;;44.67;38.00;;;;;;;;5063123;27;113813;-72
2021/03/11 22:54:52;;;;;;;;;50.33;40.00;;;;;;;;5061392;27;113985;-72
2021/03/11 22:57:18;;;;;;;;;40.67;36.67;;;;;;;;5063613;27;111843;-71
2021/03/11 22:59:45;;;;;;;;;47.67;38.67;;;;;;;;5061366;27;113995;-72
2021/03/11 23:02:11;;;;;;;;;50.00;41.00;;;;;;;;5064657;27;114179;-71
2021/03/11 23:04:37;;;;;;;;;49.33;40.00;;;;;;;;5053826;27;112229;-71
2021/03/11 23:07:03;;;;;;;;;53.67;41.00;;;;;;;;5067199;27;113324;-71
2021/03/11 23:09:30;;;;;;;;;46.00;38.00;;;;;;;;5061600;27;111956;-71
2021/03/11 23:11:56;;;;;;;;;44.00;37.33;;;;;;;;5063168;27;113449;-72
2021/03/11 23:14:23;;;;;;;;;45.67;40.67;;;;;;;;5062581;27;114205;-71
2021/03/11 23:16:50;;;;;;;;;43.67;37.67;;;;;;;;5061118;27;112430;-73
2021/03/11 23:19:17;;;;;;;;;44.00;38.00;;;;;;;;5064670;27;113620;-71
2021/03/11 23:21:47;;;;;;;;;50.33;40.33;;;;;;;;5060387;27;114353;-71
2021/03/11 23:24:13;;;;;;;;;50.00;40.00;;;;;;;;5064217;27;112374;-71
2021/03/11 23:26:39;;;;;;;;;40.67;36.33;;;;;;;;5060809;27;113570;-71
2021/03/11 23:29:05;;;;;;;;;52.33;41.33;;;;;;;;5067658;27;113967;-71
2021/03/11 23:31:31;;;;;;;;;44.67;39.67;;;;;;;;5062134;27;114273;-71
2021/03/11 23:33:59;;;;;;;;;51.67;39.67;;;;;;;;5060002;27;114020;-70
2021/03/11 23:36:25;;;;;;;;;41.00;34.67;;;;;;;;5052155;27;111869;-70
2021/03/11 23:38:51;;;;;;;;;43.67;39.00;;;;;;;;5049560;27;113322;-71
2021/03/11 23:41:17;;;;;;;;;49.67;41.00;;;;;;;;5047203;27;113895;-71
2021/03/11 23:43:43;;;;;;;;;51.33;40.67;;;;;;;;5049964;27;112357;-71
2021/03/11 23:46:09;;;;;;;;;45.33;38.33;;;;;;;;5046623;27;113718;-71
2021/03/11 23:48:35;;;;;;;;;41.67;37.33;;;;;;;;5049596;27;114459;-71
2021/03/11 23:51:02;;;;;;;;;42.67;36.33;;;;;;;;5051526;27;112187;-71
2021/03/11 23:53:28;;;;;;;;;43.00;36.67;;;;;;;;5047876;27;115089;-73
2021/03/11 23:55:54;;;;;;;;;44.67;38.00;;;;;;;;5048163;27;111978;-71
2021/03/11 23:58:22;;;;;;;;;41.00;37.67;;;;;;;;5048469;27;113428;-71
